McCarran International Airport
KLAS : now visible

Airfield :











YOU CAN JOIN US ON...

 
LOGIN :

Register | Disclaimer

   EN    FR    IT 

 









Legend :    VFR   Marginal VFR   IFR   Intensive IFR   Very Intensive IFR
Visi :
Ceiling :
>= 8 km
>= 3000ft
5 to 8 km
1000 to 3000 ft
1500m to 5 km
500 to 1000 ft
800 to 1500m
200 to 500 ft
< 800m
< 200 ft
Symbols :   Thunderstorms  Fog  Heavy snow  Heavy precipitations  Wind > 20 kt






- Airport Elevation : 2181 ft
- IATA code : LAS


KLAS - McCarran International

CURRENT METAR :
  • 220256Z 21005KT 10SM FEW150 FEW250 25/M02 A2977 RMK AO2 SLP063 FU AND HZ DSNT ALQDS T02501022 53001

EXPIRED METARs :
  • 220156Z 00000KT 10SM FEW150 FEW250 27/M02 A2976 RMK AO2 SLP058 FU AND HZ DSNT ALQDS T02721022
  • 220056Z 34003KT 10SM FEW150 FEW250 28/M04 A2976 RMK AO2 SLP057 FU AND HZ DSNT ALQDS T02831039

TAF KLAS
Valid from the 22 at 03:00 until the 23 at 06:00 UTC


220245Z 2203/2306 21007KT P6SM FEW250
FM221200 VRB05KT P6SM SCT250
FM222200 20010G18KT P6SM FEW250
KZLA FIR / North America



MET'MAP, your aeronautical weather chart ! - Copyright ORBIFLY December 2007 - Disclaimer

ORBIFLY MET'MAP TEAM :

Programming & Development : Alexandra Zaïnal
Concept & original design : Baudouin d'Aumeries
Assistance for programming : Marc-Olivier Méhu
Technical & hardware support : Manuel Goepfert

Contact : metmap@orbifly.com




SOURCES & CREDITS :

   NOAA       Earth
Advisory